Time;durP1;ratioP1;P1;durP2;ratioP2;P2;SDS_P1;SDS_P2;PMS_P1;PMS_P2;Temp;Humidity;BMP_temperature;BMP_pressure;BME280_temperature;BME280_humidity;BME280_pressure;Samples;Min_cycle;Max_cycle;Signal;HPM_P1;HPM_P2
2022/05/23 00:00:35;;;;;;;3.80;2.28;;;;;;;18.62;46.87;94234.25;4176602;28;20522;-52
2022/05/23 00:02:37;;;;;;;3.00;2.28;;;;;;;18.62;46.90;94234.25;4176133;28;20045;-53
2022/05/23 00:04:39;;;;;;;5.57;2.95;;;;;;;18.62;46.69;94244.06;4175938;28;20055;-52
2022/05/23 00:06:42;;;;;;;2.65;2.35;;;;;;;18.62;46.64;94231.59;4176390;28;20045;-48
2022/05/23 00:08:44;;;;;;;4.75;2.90;;;;;;;18.67;46.62;94235.44;4175232;28;20126;-54
2022/05/23 00:10:46;;;;;;;4.90;2.42;;;;;;;18.66;46.57;94237.28;4176295;28;20120;-54
2022/05/23 00:12:48;;;;;;;3.00;2.30;;;;;;;18.68;46.56;94234.44;4163782;28;20061;-53
2022/05/23 00:14:50;;;;;;;5.30;2.60;;;;;;;18.61;46.66;94235.31;4176182;28;20053;-54
2022/05/23 00:16:52;;;;;;;3.13;2.35;;;;;;;18.61;46.53;94234.50;4176616;28;20382;-52
2022/05/23 00:18:54;;;;;;;4.40;2.60;;;;;;;18.65;46.57;94234.84;4176020;28;20110;-52
2022/05/23 00:20:55;;;;;;;4.22;2.40;;;;;;;18.66;46.46;94234.63;4176360;28;20148;-54
2022/05/23 00:22:57;;;;;;;4.32;2.60;;;;;;;18.64;46.61;94223.44;4174738;28;20049;-51
2022/05/23 00:24:59;;;;;;;3.78;2.70;;;;;;;18.63;46.74;94227.13;4175976;28;20049;-54
2022/05/23 00:27:01;;;;;;;5.40;2.38;;;;;;;18.64;46.71;94228.72;4175938;28;20048;-53
2022/05/23 00:29:03;;;;;;;3.28;2.25;;;;;;;18.59;46.71;94224.09;4176389;28;20428;-55
2022/05/23 00:31:06;;;;;;;7.13;2.50;;;;;;;18.54;46.83;94237.22;4176066;28;20126;-56
2022/05/23 00:35:28;;;;;;;4.45;2.67;;;;;;;18.59;46.72;94213.47;4175986;28;20060;-56
2022/05/23 00:37:30;;;;;;;3.40;2.10;;;;;;;18.55;46.79;94216.81;4174722;28;20060;-55
2022/05/23 00:39:32;;;;;;;3.55;2.13;;;;;;;18.54;46.81;94218.66;4161344;28;20045;-56
2022/05/23 00:44:05;;;;;;;5.20;2.42;;;;;;;18.56;46.92;94221.06;4161850;28;20049;-54
2022/05/23 00:46:06;;;;;;;2.88;2.38;;;;;;;18.55;46.60;94225.56;4168858;28;20115;-54
2022/05/23 00:48:09;;;;;;;4.85;2.83;;;;;;;18.54;46.68;94228.44;4160383;28;20518;-53
2022/05/23 00:50:15;;;;;;;5.15;2.80;;;;;;;18.54;46.79;94228.44;4175913;28;20120;-52
2022/05/23 00:52:24;;;;;;;2.95;2.35;;;;;;;18.50;46.90;94228.06;4174371;28;20056;-52
2022/05/23 00:54:31;;;;;;;3.22;2.20;;;;;;;18.53;46.74;94234.78;4175566;28;20473;-56
2022/05/23 00:56:39;;;;;;;3.40;2.13;;;;;;;18.48;46.76;94243.41;4175936;28;20142;-52
2022/05/23 00:58:46;;;;;;;2.90;2.40;;;;;;;18.52;46.82;94236.63;4174273;28;20057;-53
2022/05/23 01:00:49;;;;;;;3.22;2.50;;;;;;;18.51;46.99;94236.84;4174560;28;20057;-55
2022/05/23 01:02:54;;;;;;;4.72;2.20;;;;;;;18.50;47.00;94232.53;4173890;28;20057;-51
2022/05/23 01:04:56;;;;;;;3.92;2.33;;;;;;;18.48;47.09;94226.69;4175740;28;20088;-53
2022/05/23 01:06:58;;;;;;;3.83;2.35;;;;;;;18.50;47.18;94232.53;4175335;28;20468;-54
2022/05/23 01:09:00;;;;;;;5.85;2.33;;;;;;;18.47;47.09;94235.66;4174956;28;20053;-51
2022/05/23 01:11:03;;;;;;;4.72;2.30;;;;;;;18.48;47.10;94235.44;4175929;28;20103;-53
2022/05/23 01:13:05;;;;;;;3.60;2.30;;;;;;;18.52;47.19;94239.28;4162961;28;20108;-55
2022/05/23 01:15:20;;;;;;;4.88;2.22;;;;;;;18.51;47.06;94234.19;4175923;28;20053;-51
2022/05/23 01:17:23;;;;;;;3.25;2.40;;;;;;;18.44;47.29;94239.56;4177677;28;20121;-50
2022/05/23 01:19:25;;;;;;;2.92;2.17;;;;;;;18.45;47.35;94235.06;4179043;28;20045;-53
2022/05/23 01:21:42;;;;;;;3.13;2.25;;;;;;;18.44;47.34;94223.66;4179006;28;20053;-54
2022/05/23 01:24:00;;;;;;;4.32;2.63;;;;;;;18.44;47.46;94223.66;4177699;28;20098;-53
2022/05/23 01:26:03;;;;;;;5.75;3.38;;;;;;;18.46;47.43;94218.13;4177566;28;20533;-51
2022/05/23 01:28:06;;;;;;;4.38;2.70;;;;;;;18.42;48.01;94212.44;4179090;28;20141;-51
2022/05/23 01:30:08;;;;;;;3.78;2.67;;;;;;;18.37;48.71;94212.28;4178797;28;20140;-51
2022/05/23 01:32:10;;;;;;;4.37;3.07;;;;;;;18.31;48.88;94215.81;4175663;28;20483;-59
2022/05/23 01:34:12;;;;;;;4.95;3.58;;;;;;;18.15;49.56;94217.97;4172947;28;20324;-53
2022/05/23 01:36:15;;;;;;;4.97;3.30;;;;;;;18.05;50.13;94214.19;4165251;28;20152;-54
2022/05/23 01:38:17;;;;;;;5.43;3.13;;;;;;;17.98;50.31;94216.91;4174837;28;20049;-53
2022/05/23 01:40:19;;;;;;;4.68;2.85;;;;;;;17.96;50.15;94211.00;4161954;28;20195;-52
2022/05/23 01:42:21;;;;;;;5.88;2.78;;;;;;;18.02;49.85;94212.78;4177549;28;20201;-55
2022/05/23 01:44:22;;;;;;;4.43;3.03;;;;;;;17.95;50.45;94215.50;4177267;28;20210;-54
2022/05/23 01:46:24;;;;;;;3.22;2.78;;;;;;;17.92;50.21;94220.44;4166323;28;20057;-54
2022/05/23 01:48:27;;;;;;;4.00;3.17;;;;;;;17.81;50.48;94217.41;4160066;28;20516;-54
2022/05/23 01:50:28;;;;;;;3.83;2.90;;;;;;;17.84;50.06;94218.84;4174175;28;20057;-55
2022/05/23 01:52:30;;;;;;;3.80;2.83;;;;;;;17.85;50.04;94220.47;4177271;28;20057;-53
2022/05/23 01:54:32;;;;;;;4.63;3.05;;;;;;;17.89;49.69;94229.59;4178024;28;20482;-54
2022/05/23 01:56:33;;;;;;;3.78;2.60;;;;;;;17.90;49.82;94223.28;4177325;28;20107;-54
2022/05/23 02:01:13;;;;;;;6.15;2.80;;;;;;;17.94;49.94;94213.06;4161890;28;20050;-53
2022/05/23 02:03:15;;;;;;;4.63;2.75;;;;;;;17.95;49.90;94210.19;4164256;28;20505;-54
2022/05/23 02:05:18;;;;;;;5.13;3.10;;;;;;;17.89;50.15;94221.66;4177797;28;20064;-54
2022/05/23 02:07:20;;;;;;;5.25;2.83;;;;;;;17.82;50.21;94220.91;4177248;28;20779;-50
2022/05/23 02:09:26;;;;;;;5.38;2.78;;;;;;;17.86;50.46;94216.00;4178562;28;20239;-50
2022/05/23 02:11:28;;;;;;;5.30;2.85;;;;;;;17.80;50.70;94222.94;4175388;28;20451;-54
2022/05/23 02:13:34;;;;;;;5.10;2.70;;;;;;;17.81;50.48;94219.28;4168372;28;20110;-54
2022/05/23 02:15:36;;;;;;;5.90;2.88;;;;;;;17.77;50.74;94218.88;4178294;28;20056;-53
2022/05/23 02:17:38;;;;;;;6.53;2.97;;;;;;;17.48;51.67;94217.63;4177876;28;20496;-53
2022/05/23 02:19:39;;;;;;;3.75;2.75;;;;;;;17.05;52.85;94217.47;4178249;28;20604;-50
2022/05/23 02:21:41;;;;;;;4.40;3.13;;;;;;;16.97;53.21;94219.34;4178349;28;20472;-52
2022/05/23 02:23:43;;;;;;;5.70;3.13;;;;;;;16.88;53.79;94225.06;4176731;28;20178;-54
2022/05/23 02:25:45;;;;;;;6.03;3.15;;;;;;;16.77;54.15;94226.50;4178045;28;20052;-52
2022/05/23 02:27:47;;;;;;;3.42;3.13;;;;;;;16.52;54.83;94226.34;4177461;28;20053;-53
2022/05/23 02:29:49;;;;;;;4.30;3.13;;;;;;;16.50;55.17;94229.22;4178240;28;20446;-50
2022/05/23 02:31:51;;;;;;;6.60;3.38;;;;;;;16.63;55.00;94224.91;4178241;28;20114;-50
2022/05/23 02:33:53;;;;;;;4.55;3.50;;;;;;;16.81;54.82;94219.81;4177401;28;20505;-51
2022/05/23 02:35:54;;;;;;;6.18;3.50;;;;;;;16.96;54.32;94216.91;4177843;28;20402;-50
2022/05/23 02:37:56;;;;;;;4.53;3.17;;;;;;;17.12;53.75;94221.72;4176614;28;20053;-53
2022/05/23 02:39:58;;;;;;;6.35;3.72;;;;;;;17.25;53.80;94220.84;4173684;28;20056;-52
2022/05/23 02:42:01;;;;;;;5.78;3.35;;;;;;;17.31;53.70;94219.16;4177919;28;20496;-54
2022/05/23 02:44:03;;;;;;;4.72;3.40;;;;;;;17.39;53.49;94222.38;4177664;28;20114;-54
2022/05/23 02:46:04;;;;;;;7.75;3.70;;;;;;;17.49;53.30;94221.91;4175068;28;20133;-52
2022/05/23 02:48:07;;;;;;;6.55;4.03;;;;;;;17.51;53.42;94219.03;4164774;28;20049;-49
2022/05/23 02:50:11;;;;;;;3.40;2.97;;;;;;;17.53;53.15;94215.19;4161533;28;20057;-51
2022/05/23 02:52:13;;;;;;;5.20;3.67;;;;;;;17.57;53.27;94219.03;4159667;28;20678;-49
2022/05/23 02:54:15;;;;;;;5.13;3.78;;;;;;;17.53;53.58;94211.69;4170897;28;20044;-53
2022/05/23 02:56:17;;;;;;;4.55;3.30;;;;;;;17.57;53.30;94215.53;4177898;28;20056;-53
2022/05/23 02:58:19;;;;;;;4.65;3.50;;;;;;;17.60;53.28;94215.13;4177529;28;20065;-52
2022/05/23 03:00:21;;;;;;;5.07;3.47;;;;;;;17.62;53.12;94213.09;4176393;28;20057;-53
2022/05/23 03:04:43;;;;;;;3.97;2.92;;;;;;;17.66;53.06;94213.44;4160998;28;20050;-54
2022/05/23 03:06:45;;;;;;;4.38;3.05;;;;;;;17.69;52.93;94210.38;4160992;28;20049;-54
2022/05/23 03:08:47;;;;;;;3.90;3.20;;;;;;;17.71;52.84;94200.38;4159756;28;20511;-50
2022/05/23 03:10:50;;;;;;;3.97;2.92;;;;;;;17.73;52.73;94207.09;4161212;28;20164;-54
2022/05/23 03:12:52;;;;;;;7.03;3.20;;;;;;;17.77;52.52;94204.81;4162539;28;20122;-54
2022/05/23 03:14:54;;;;;;;3.78;3.05;;;;;;;17.81;52.31;94208.66;4177679;28;20053;-52
2022/05/23 03:17:04;;;;;;;4.60;2.97;;;;;;;17.84;52.46;94202.97;4177365;28;20041;-54
2022/05/23 03:19:06;;;;;;;5.60;3.35;;;;;;;17.91;52.15;94205.56;4177243;28;20118;-53
2022/05/23 03:21:10;;;;;;;5.72;3.75;;;;;;;17.96;52.07;94192.44;4177203;28;20057;-54
2022/05/23 03:27:53;;;;;;;4.38;3.15;;;;;;;18.10;51.28;94186.03;4177379;28;20126;-49
2022/05/23 03:29:54;;;;;;;4.30;3.20;;;;;;;18.08;51.54;94189.91;4168620;28;20107;-52
2022/05/23 03:31:56;;;;;;;4.85;3.25;;;;;;;18.12;51.54;94193.75;4160882;28;20053;-52
2022/05/23 03:33:58;;;;;;;7.18;3.50;;;;;;;18.16;51.25;94206.34;4158658;28;20061;-50
2022/05/23 03:36:00;;;;;;;4.22;2.90;;;;;;;18.18;51.17;94201.66;4160612;28;20087;-51
2022/05/23 03:38:02;;;;;;;6.07;3.45;;;;;;;18.24;51.13;94209.75;4159429;28;20084;-50
2022/05/23 03:40:06;;;;;;;4.85;3.30;;;;;;;18.26;51.24;94207.69;4176141;28;20360;-52
2022/05/23 03:42:09;;;;;;;5.82;3.40;;;;;;;18.31;51.00;94200.72;4176654;28;20057;-53
2022/05/23 03:44:10;;;;;;;5.30;3.30;;;;;;;18.38;50.79;94192.69;4176868;28;20344;-56
2022/05/23 03:46:13;;;;;;;5.55;3.47;;;;;;;18.48;50.59;94181.59;4176617;28;20433;-54
2022/05/23 03:48:15;;;;;;;5.57;3.13;;;;;;;18.50;50.37;94190.09;4165961;28;20049;-53
2022/05/23 03:50:18;;;;;;;4.72;3.10;;;;;;;18.44;49.93;94197.13;4173553;28;20125;-55
2022/05/23 03:52:20;;;;;;;3.45;2.58;;;;;;;18.45;50.31;94204.03;4175679;28;20442;-56
2022/05/23 03:54:22;;;;;;;4.47;3.22;;;;;;;18.47;50.07;94209.13;4176939;28;20449;-52
2022/05/23 03:56:24;;;;;;;7.03;3.47;;;;;;;18.47;50.24;94201.97;4176506;28;20106;-51
2022/05/23 03:58:26;;;;;;;4.80;3.05;;;;;;;18.50;50.39;94200.72;4176853;28;20053;-51
2022/05/23 04:00:28;;;;;;;5.85;3.10;;;;;;;18.58;49.66;94200.44;4176520;28;20107;-51
2022/05/23 04:02:30;;;;;;;4.85;2.97;;;;;;;18.63;49.55;94205.91;4176279;28;20076;-49
2022/05/23 04:04:32;;;;;;;6.03;3.05;;;;;;;18.65;49.40;94203.84;4176411;28;20087;-48
2022/05/23 04:06:40;;;;;;;5.45;3.03;;;;;;;18.65;49.36;94206.50;4176360;28;20044;-48
2022/05/23 04:08:42;;;;;;;6.35;3.30;;;;;;;18.64;49.61;94207.50;4175003;28;20053;-50
2022/05/23 04:10:44;;;;;;;8.57;3.97;;;;;;;18.54;50.57;94196.59;4174832;28;20465;-53
2022/05/23 04:12:46;;;;;;;9.48;3.80;;;;;;;18.48;50.81;94200.97;4163274;28;20069;-54
2022/05/23 04:14:47;;;;;;;11.00;3.70;;;;;;;18.54;50.89;94204.56;4176263;28;20134;-53
2022/05/23 04:16:50;;;;;;;7.57;3.55;;;;;;;18.58;51.12;94205.75;4175843;28;20106;-52
2022/05/23 04:18:51;;;;;;;8.48;4.13;;;;;;;18.68;51.31;94202.59;4175695;28;20820;-53
2022/05/23 04:20:57;;;;;;;8.47;3.90;;;;;;;18.67;51.45;94201.78;4176197;28;20054;-53
2022/05/23 04:22:59;;;;;;;4.93;3.20;;;;;;;18.65;51.07;94206.50;4175177;28;20060;-55
2022/05/23 04:25:01;;;;;;;6.47;3.92;;;;;;;18.76;51.42;94204.94;4176331;28;20049;-54
2022/05/23 04:27:03;;;;;;;7.25;4.22;;;;;;;18.85;51.48;94193.03;4176165;28;20072;-56
2022/05/23 04:29:08;;;;;;;5.15;3.47;;;;;;;18.85;50.99;94194.88;4176551;28;20057;-54
2022/05/23 04:31:10;;;;;;;11.55;4.60;;;;;;;18.88;51.09;94203.19;4176218;28;20049;-54
2022/05/23 04:35:33;;;;;;;6.40;4.13;;;;;;;18.69;51.68;94212.16;4176242;28;20118;-52
2022/05/23 04:37:35;;;;;;;6.30;3.65;;;;;;;18.54;52.21;94207.22;4175066;28;20106;-51
2022/05/23 04:39:36;;;;;;;6.65;3.85;;;;;;;18.50;51.92;94206.03;4162736;28;20479;-53
2022/05/23 04:41:38;;;;;;;10.88;3.47;;;;;;;18.52;51.79;94210.09;4159669;28;20045;-52
2022/05/23 04:43:40;;;;;;;6.38;3.20;;;;;;;18.59;51.86;94197.56;4159765;28;20697;-53
2022/05/23 04:45:42;;;;;;;8.57;3.30;;;;;;;18.67;51.19;94200.94;4159220;28;20132;-53
2022/05/23 04:50:04;;;;;;;4.82;2.42;;;;;;;18.73;49.61;94192.91;4163857;28;20053;-51
2022/05/23 04:52:07;;;;;;;4.95;2.72;;;;;;;18.80;49.68;94179.63;4165438;28;20044;-54
2022/05/23 04:54:09;;;;;;;5.93;2.70;;;;;;;18.82;48.76;94175.72;4176000;28;20126;-54
2022/05/23 04:56:11;;;;;;;3.42;2.40;;;;;;;18.95;48.49;94181.88;4176162;28;20173;-53
2022/05/23 04:58:13;;;;;;;6.10;2.45;;;;;;;19.05;47.65;94190.13;4176044;28;20100;-52
2022/05/23 05:00:20;;;;;;;11.85;2.13;;;;;;;19.15;47.26;94182.44;4175798;28;20053;-53
2022/05/23 05:02:22;;;;;;;4.03;2.17;;;;;;;19.22;46.49;94191.13;4175665;28;20048;-52
2022/05/23 05:04:23;;;;;;;3.03;1.85;;;;;;;19.24;46.16;94198.88;4172976;28;20053;-51
2022/05/23 05:06:25;;;;;;;3.97;2.00;;;;;;;19.20;46.31;94189.72;4175424;28;20055;-52
2022/05/23 05:08:28;;;;;;;6.10;1.92;;;;;;;19.27;46.36;94184.31;4174407;28;20099;-54
2022/05/23 05:10:30;;;;;;;3.55;1.85;;;;;;;19.28;45.71;94193.94;4175903;28;20057;-53
2022/05/23 05:12:32;;;;;;;5.63;1.92;;;;;;;19.31;45.55;94186.28;4174077;28;20069;-53
2022/05/23 05:14:34;;;;;;;2.80;1.67;;;;;;;19.31;45.29;94182.84;4174336;28;20057;-55
2022/05/23 05:16:36;;;;;;;3.63;2.05;;;;;;;19.37;45.18;94184.59;4175812;28;20132;-50
2022/05/23 05:18:38;;;;;;;3.35;1.65;;;;;;;19.56;44.47;94177.38;4175566;28;20467;-47
2022/05/23 05:20:40;;;;;;;6.85;1.70;;;;;;;19.68;44.54;94180.06;4174496;28;20049;-55
2022/05/23 05:22:42;;;;;;;5.60;1.45;;;;;;;19.75;43.77;94175.50;4174256;28;20627;-53
2022/05/23 05:24:44;;;;;;;3.85;1.70;;;;;;;19.80;43.79;94171.09;4175882;28;20143;-52
2022/05/23 05:26:46;;;;;;;4.18;1.85;;;;;;;19.79;43.35;94176.66;4169181;28;20041;-52
2022/05/23 05:28:47;;;;;;;4.03;1.88;;;;;;;19.76;43.58;94166.47;4159263;28;20045;-54
2022/05/23 05:30:56;;;;;;;5.97;1.90;;;;;;;19.77;43.73;94173.41;4159194;28;20049;-55
2022/05/23 05:33:15;;;;;;;2.58;1.63;;;;;;;19.90;43.45;94167.88;4159030;28;20052;-54
2022/05/23 05:35:16;;;;;;;3.25;1.58;;;;;;;19.87;43.00;94160.34;4157680;28;20053;-53
2022/05/23 05:37:29;;;;;;;5.97;1.80;;;;;;;19.97;43.60;94175.75;4157842;28;20134;-53
2022/05/23 05:39:33;;;;;;;5.80;1.53;;;;;;;20.03;43.27;94172.97;4171672;28;20466;-49
2022/05/23 05:41:49;;;;;;;4.82;1.60;;;;;;;20.12;42.79;94180.63;4175711;28;20343;-53
2022/05/23 05:44:05;;;;;;;5.47;1.63;;;;;;;20.18;43.02;94188.47;4174077;28;20076;-51
2022/05/23 05:46:15;;;;;;;3.67;1.92;;;;;;;20.31;42.53;94182.13;4175826;28;20114;-54
2022/05/23 05:48:18;;;;;;;2.70;1.45;;;;;;;20.30;42.65;94196.44;4173837;28;20049;-55
2022/05/23 05:50:31;;;;;;;4.32;1.80;;;;;;;20.28;42.78;94197.72;4167574;28;20110;-52
2022/05/23 05:52:34;;;;;;;6.07;1.83;;;;;;;20.24;42.84;94200.84;4155901;28;20057;-54
2022/05/23 05:54:38;;;;;;;4.10;1.70;;;;;;;20.19;43.09;94199.91;4171709;28;20060;-55
2022/05/23 05:56:43;;;;;;;3.22;1.45;;;;;;;20.09;43.38;94197.84;4175300;28;20056;-53
2022/05/23 05:58:45;;;;;;;6.10;1.80;;;;;;;19.99;43.62;94194.94;4175555;28;20845;-54
2022/05/23 06:00:48;;;;;;;6.53;1.75;;;;;;;20.03;43.72;94198.75;4174261;28;20664;-53
2022/05/23 06:02:50;;;;;;;2.92;1.77;;;;;;;20.10;43.29;94202.09;4176315;28;20136;-52
2022/05/23 06:04:52;;;;;;;7.57;3.10;;;;;;;20.07;43.57;94199.09;4178464;28;20531;-52
2022/05/23 06:11:35;;;;;;;4.78;2.00;;;;;;;20.12;43.98;94199.22;4174423;28;20041;-55
2022/05/23 06:13:37;;;;;;;5.80;2.15;;;;;;;20.18;43.77;94193.00;4161805;28;20054;-56
2022/05/23 06:15:39;;;;;;;3.78;1.90;;;;;;;20.23;43.48;94191.25;4161998;28;20057;-53
2022/05/23 06:17:45;;;;;;;4.70;2.20;;;;;;;20.28;43.69;94182.56;4161644;28;20057;-53
2022/05/23 06:19:47;;;;;;;3.60;2.10;;;;;;;20.29;43.35;94175.41;4161781;28;20068;-55
2022/05/23 06:21:48;;;;;;;4.93;2.15;;;;;;;20.31;43.63;94181.31;4162036;28;20056;-54
2022/05/23 06:23:50;;;;;;;6.28;2.42;;;;;;;20.31;43.79;94173.34;4160517;28;20061;-54
2022/05/23 06:25:52;;;;;;;4.22;2.42;;;;;;;20.36;43.86;94171.59;4161448;28;20434;-54
2022/05/23 06:27:53;;;;;;;7.68;2.55;;;;;;;20.34;44.04;94170.19;4161538;28;20125;-53
2022/05/23 06:29:55;;;;;;;4.50;2.03;;;;;;;20.39;43.95;94171.13;4161972;28;20069;-53
2022/05/23 06:31:57;;;;;;;7.25;2.83;;;;;;;20.32;44.40;94170.44;4161561;28;20387;-51
2022/05/23 06:33:59;;;;;;;8.38;2.38;;;;;;;20.32;44.27;94166.97;4161484;28;20546;-52
2022/05/23 06:36:00;;;;;;;5.82;2.10;;;;;;;20.37;44.26;94167.06;4161804;28;20793;-50
2022/05/23 06:38:02;;;;;;;5.60;2.10;;;;;;;20.51;43.55;94165.78;4160193;28;20110;-53
2022/05/23 06:40:06;;;;;;;5.93;2.55;;;;;;;20.66;43.49;94160.00;4161573;28;20355;-53
2022/05/23 06:42:08;;;;;;;4.13;2.05;;;;;;;20.79;43.25;94165.06;4161396;28;20045;-52
2022/05/23 06:44:10;;;;;;;5.10;2.20;;;;;;;20.73;43.00;94171.31;4161684;28;20064;-54
2022/05/23 06:46:13;;;;;;;3.42;1.77;;;;;;;20.82;42.04;94161.13;4161246;28;20061;-51
2022/05/23 06:48:15;;;;;;;5.03;2.65;;;;;;;20.88;42.44;94160.19;4161943;28;20057;-51
2022/05/23 06:50:17;;;;;;;6.40;2.50;;;;;;;20.82;42.40;94155.78;4176733;28;20110;-52
2022/05/23 06:52:20;;;;;;;5.15;2.13;;;;;;;20.93;41.75;94154.97;4158350;28;20065;-50
2022/05/23 06:54:22;;;;;;;9.52;2.10;;;;;;;20.96;41.14;94162.47;4171900;28;20044;-52
2022/05/23 06:56:24;;;;;;;7.30;2.85;;;;;;;20.88;41.29;94151.38;4177842;28;20052;-57
2022/05/23 06:58:26;;;;;;;4.85;2.03;;;;;;;20.92;41.41;94158.66;4176349;28;20053;-52
2022/05/23 07:00:27;;;;;;;5.97;2.20;;;;;;;21.07;41.09;94152.84;4177726;28;20049;-51
2022/05/23 07:02:29;;;;;;;5.60;2.13;;;;;;;21.19;40.08;94166.91;4177295;28;20107;-52
2022/05/23 07:13:55;;;;;;;5.53;1.80;;;;;;;21.62;39.43;94146.94;4160605;28;20061;-53
2022/05/23 07:15:57;;;;;;;4.60;2.08;;;;;;;21.53;39.19;94155.53;4161138;28;20057;-49
2022/05/23 07:17:59;;;;;;;5.43;2.10;;;;;;;21.53;39.66;94161.69;4159192;28;20084;-55
2022/05/23 07:20:01;;;;;;;7.10;2.38;;;;;;;21.23;39.60;94160.06;4160829;28;20049;-54
2022/05/23 07:22:03;;;;;;;5.40;1.70;;;;;;;21.36;40.04;94158.16;4160042;28;20084;-55
2022/05/23 07:24:05;;;;;;;4.47;2.08;;;;;;;21.46;40.08;94158.38;4160429;28;20049;-54
2022/05/23 07:26:15;;;;;;;3.65;1.83;;;;;;;21.57;39.82;94154.81;4160539;28;20636;-52
2022/05/23 07:28:17;;;;;;;3.92;2.10;;;;;;;21.66;39.70;94153.41;4160988;28;20059;-52
2022/05/23 07:30:21;;;;;;;3.67;1.98;;;;;;;21.56;39.78;94158.53;4160676;28;20049;-51
2022/05/23 07:32:23;;;;;;;3.28;1.80;;;;;;;21.58;39.32;94152.97;4160470;28;20115;-52
2022/05/23 07:34:25;;;;;;;8.23;2.33;;;;;;;21.65;39.79;94154.44;4175365;28;20293;-50
2022/05/23 07:36:27;;;;;;;6.05;2.22;;;;;;;21.70;39.72;94152.91;4173606;28;20130;-53
2022/05/23 07:38:29;;;;;;;2.47;1.50;;;;;;;21.79;38.76;94146.94;4171439;28;20053;-54
2022/05/23 07:40:30;;;;;;;9.48;2.50;;;;;;;21.78;38.73;94157.84;4160207;28;20121;-51
2022/05/23 07:42:32;;;;;;;7.15;1.90;;;;;;;21.84;37.99;94146.22;4160186;28;20126;-56
2022/05/23 07:44:35;;;;;;;7.10;2.35;;;;;;;21.92;37.46;94150.31;4160460;28;20076;-51
2022/05/23 07:46:37;;;;;;;8.35;2.33;;;;;;;21.80;37.20;94148.53;4160506;28;20390;-56
2022/05/23 07:48:42;;;;;;;5.00;2.42;;;;;;;21.91;36.90;94154.84;4158590;28;20049;-53
2022/05/23 07:50:44;;;;;;;5.25;2.58;;;;;;;21.69;37.11;94157.44;4160503;28;20057;-54
2022/05/23 08:00:31;;;;;;;6.05;2.72;;;;;;;21.72;37.85;94151.59;4163986;28;20256;-54
2022/05/23 08:02:10;;;;;;;3.60;2.33;;;;;;;22.02;37.07;94161.94;4176102;28;20110;-50
2022/05/23 08:04:11;;;;;;;6.10;2.75;;;;;;;21.89;37.53;94157.75;4174920;28;20458;-53
2022/05/23 08:06:14;;;;;;;6.13;3.30;;;;;;;22.02;38.97;94156.63;4176617;28;20107;-55
2022/05/23 08:08:15;;;;;;;4.85;1.85;;;;;;;22.33;39.29;94146.44;4175051;28;20110;-54
2022/05/23 08:10:17;;;;;;;2.55;1.73;;;;;;;22.25;37.07;94165.53;4176477;28;20362;-55
2022/05/23 08:12:20;;;;;;;4.85;1.92;;;;;;;22.42;36.71;94162.84;4166433;28;20053;-54
2022/05/23 08:14:22;;;;;;;2.08;1.58;;;;;;;22.32;36.44;94162.69;4160101;28;20119;-54
2022/05/23 08:16:24;;;;;;;4.80;1.60;;;;;;;22.27;36.59;94147.41;4159854;28;20355;-54
2022/05/23 08:18:26;;;;;;;7.18;1.73;;;;;;;22.32;36.42;94160.81;4159952;28;20049;-56
2022/05/23 08:20:28;;;;;;;3.35;1.50;;;;;;;22.20;36.84;94158.25;4160345;28;20102;-54
2022/05/23 08:22:30;;;;;;;3.55;1.75;;;;;;;22.02;36.81;94167.28;4158092;28;20418;-55
2022/05/23 08:24:33;;;;;;;4.97;1.80;;;;;;;22.01;37.07;94149.69;4160130;28;20076;-55
2022/05/23 08:26:34;;;;;;;5.63;1.70;;;;;;;21.99;36.76;94146.44;4159519;28;20123;-56
2022/05/23 08:28:36;;;;;;;8.90;1.85;;;;;;;22.13;36.66;94151.44;4159920;28;20107;-55
2022/05/23 08:30:38;;;;;;;3.92;1.50;;;;;;;22.13;36.13;94146.09;4159949;28;20129;-54
2022/05/23 08:32:39;;;;;;;3.10;1.45;;;;;;;22.08;36.18;94150.31;4159587;28;20421;-54
2022/05/23 08:34:42;;;;;;;2.38;1.50;;;;;;;22.12;36.47;94152.50;4160275;28;20054;-54
2022/05/23 08:36:44;;;;;;;5.38;2.13;;;;;;;22.27;36.35;94147.41;4159881;28;20134;-56
2022/05/23 08:38:45;;;;;;;2.38;1.50;;;;;;;22.33;36.17;94141.09;4164827;28;20041;-54
2022/05/23 08:41:17;;;;;;;4.90;2.40;;;;;;;22.31;35.42;94151.22;4176476;28;20505;-57
2022/05/23 08:44:10;;;;;;;5.65;1.77;;;;;;;22.32;35.49;94139.47;4174806;28;20076;-54
2022/05/23 08:46:18;;;;;;;4.15;1.88;;;;;;;22.18;35.85;94152.34;4174872;28;20428;-56
2022/05/23 08:48:24;;;;;;;5.45;1.60;;;;;;;22.11;36.18;94159.69;4174366;28;20053;-52
2022/05/23 08:50:37;;;;;;;3.95;1.27;;;;;;;22.16;35.65;94145.63;4176334;28;20053;-54
2022/05/23 08:52:51;;;;;;;6.45;1.77;;;;;;;22.17;35.03;94149.91;4170658;28;20053;-51
2022/05/23 08:55:18;;;;;;;4.63;1.63;;;;;;;22.22;35.24;94132.16;4169197;28;20053;-54
2022/05/23 08:57:31;;;;;;;2.78;1.38;;;;;;;22.32;35.94;94149.34;4174801;28;20061;-53
2022/05/23 08:59:43;;;;;;;4.47;1.77;;;;;;;22.39;35.82;94134.78;4174409;28;20083;-53
2022/05/23 09:01:53;;;;;;;2.17;1.60;;;;;;;22.41;35.41;94132.69;4174409;28;20140;-55
2022/05/23 09:04:06;;;;;;;2.70;1.90;;;;;;;22.40;35.72;94149.75;4174276;28;20063;-55
2022/05/23 09:06:15;;;;;;;4.22;2.30;;;;;;;22.23;35.76;94140.97;4175473;28;20183;-54
2022/05/23 09:08:21;;;;;;;2.65;1.40;;;;;;;22.25;34.99;94131.66;4172872;28;20060;-56
2022/05/23 09:10:34;;;;;;;8.45;1.90;;;;;;;22.39;35.26;94124.13;4174572;28;20056;-53
2022/05/23 09:12:36;;;;;;;7.07;1.90;;;;;;;22.39;34.91;94137.47;4165617;28;20484;-53
2022/05/23 09:14:38;;;;;;;2.30;1.52;;;;;;;22.45;35.25;94127.66;4175847;28;20053;-54
2022/05/23 09:16:54;;;;;;;3.08;1.70;;;;;;;22.50;35.31;94119.72;4175977;28;20063;-53
2022/05/23 09:19:02;;;;;;;4.43;2.40;;;;;;;22.56;35.31;94123.25;4175565;28;20068;-52
2022/05/23 09:21:04;;;;;;;4.13;2.28;;;;;;;22.80;35.47;94115.78;4174154;28;20099;-54
2022/05/23 09:23:10;;;;;;;3.25;1.60;;;;;;;22.93;34.98;94111.94;4172644;28;20057;-54
2022/05/23 09:25:27;;;;;;;4.78;2.47;;;;;;;22.96;34.81;94114.13;4175755;28;20160;-55
2022/05/23 09:27:37;;;;;;;2.10;1.50;;;;;;;23.22;34.73;94108.00;4175378;28;20141;-54
2022/05/23 09:29:38;;;;;;;2.65;1.60;;;;;;;23.43;33.65;94110.91;4173973;28;20049;-51
2022/05/23 09:31:45;;;;;;;2.53;1.60;;;;;;;23.67;33.69;94114.03;4175565;28;20053;-54
2022/05/23 09:33:49;;;;;;;2.65;1.83;;;;;;;23.84;33.87;94113.94;4167530;28;20053;-48
2022/05/23 09:36:07;;;;;;;5.95;1.70;;;;;;;23.82;33.61;94092.78;4157561;28;20061;-52
2022/05/23 09:38:26;;;;;;;2.75;1.63;;;;;;;23.71;34.23;94102.56;4158114;28;20057;-57
2022/05/23 09:40:31;;;;;;;2.63;1.63;;;;;;;23.52;34.83;94104.81;4162463;28;20115;-51
2022/05/23 09:49:45;;;;;;;4.20;2.67;;;;;;;23.73;34.69;94114.91;4161887;28;20050;-53
2022/05/23 09:51:46;;;;;;;6.05;2.60;;;;;;;23.48;34.80;94105.59;4161909;28;20061;-54
2022/05/23 09:53:53;;;;;;;2.40;1.70;;;;;;;23.71;33.82;94112.47;4164886;28;20049;-54
2022/05/23 09:56:28;;;;;;;5.05;1.92;;;;;;;23.50;34.13;94114.97;4167381;28;20141;-53
2022/05/23 09:58:33;;;;;;;7.20;2.60;;;;;;;23.24;34.45;94097.88;4177131;28;20053;-53
2022/05/23 10:00:43;;;;;;;3.17;1.98;;;;;;;23.02;34.57;94097.13;4177170;28;20102;-51
2022/05/23 10:02:57;;;;;;;4.15;2.25;;;;;;;23.03;34.71;94102.19;4176951;28;20544;-52
2022/05/23 10:04:59;;;;;;;8.02;2.13;;;;;;;23.27;34.91;94113.44;4178503;28;20497;-52
2022/05/23 10:07:01;;;;;;;3.65;1.70;;;;;;;23.23;34.38;94087.44;4176847;28;20088;-51
2022/05/23 10:09:07;;;;;;;3.03;2.05;;;;;;;22.99;34.10;94105.59;4176334;28;20421;-56
2022/05/23 10:11:29;;;;;;;6.38;2.25;;;;;;;22.61;34.81;94093.97;4177253;28;20057;-53
2022/05/23 10:13:59;;;;;;;6.05;2.08;;;;;;;22.93;34.83;94095.91;4161789;28;20111;-49
2022/05/23 10:16:23;;;;;;;7.75;2.15;;;;;;;23.26;34.80;94100.31;4161971;28;20716;-51
2022/05/23 10:18:29;;;;;;;4.05;2.10;;;;;;;23.64;34.04;94088.63;4161599;28;20045;-53
2022/05/23 10:20:42;;;;;;;3.00;2.10;;;;;;;23.82;33.56;94103.50;4160761;28;20131;-53
2022/05/23 10:23:04;;;;;;;8.00;2.70;;;;;;;23.44;34.47;94083.09;4160325;28;20050;-53
2022/05/23 10:25:07;;;;;;;8.20;3.70;;;;;;;23.29;34.61;94079.22;4161746;28;20132;-52
2022/05/23 10:27:13;;;;;;;2.67;1.73;;;;;;;23.57;34.30;94092.56;4161710;28;20174;-52
2022/05/23 10:29:26;;;;;;;2.47;1.50;;;;;;;23.62;33.37;94087.28;4159999;28;20504;-51
2022/05/23 10:32:02;;;;;;;3.15;1.77;;;;;;;23.68;33.15;94089.72;4161623;28;20046;-55
2022/05/23 10:34:16;;;;;;;4.38;1.70;;;;;;;23.83;33.40;94082.91;4161390;28;20053;-52